createdAt,value
2017-07-23T00:01:12.355Z,31.90
2017-07-23T00:03:44.709Z,33.87
2017-07-23T00:06:16.974Z,31.70
2017-07-23T00:08:49.347Z,31.87
2017-07-23T00:11:21.632Z,33.80
2017-07-23T00:13:53.884Z,33.20
2017-07-23T00:16:26.213Z,38.30
2017-07-23T00:18:58.584Z,34.60
2017-07-23T00:21:30.805Z,36.63
2017-07-23T00:24:03.716Z,33.93
2017-07-23T00:26:36.465Z,33.20
2017-07-23T00:29:08.793Z,33.90
2017-07-23T00:31:41.116Z,31.87
2017-07-23T00:34:13.507Z,31.77
2017-07-23T00:36:45.770Z,28.37
2017-07-23T00:39:18.141Z,27.93
2017-07-23T00:41:50.388Z,29.43
2017-07-23T00:44:22.692Z,32.40
2017-07-23T00:46:55.112Z,31.77
2017-07-23T00:49:27.351Z,28.27
2017-07-23T00:51:59.751Z,29.53
2017-07-23T00:54:31.987Z,29.70
2017-07-23T00:57:04.244Z,29.30
2017-07-23T00:59:36.693Z,27.57
2017-07-23T01:02:09.027Z,28.37
2017-07-23T01:04:41.448Z,28.40
2017-07-23T01:07:13.643Z,27.77
2017-07-23T01:09:46.071Z,28.57
2017-07-23T01:12:18.295Z,28.00
2017-07-23T01:14:50.631Z,27.80
2017-07-23T01:17:22.923Z,29.10
2017-07-23T01:19:55.329Z,26.97
2017-07-23T01:22:27.623Z,26.97
2017-07-23T01:24:59.961Z,28.43
2017-07-23T01:27:32.275Z,26.73
2017-07-23T01:30:04.543Z,33.53
2017-07-23T01:32:36.927Z,27.27
2017-07-23T01:35:09.423Z,28.20
2017-07-23T01:40:02.072Z,29.10
2017-07-23T01:42:34.200Z,28.83
2017-07-23T01:45:06.504Z,26.70
2017-07-23T01:47:38.860Z,26.23
2017-07-23T01:50:10.978Z,25.67
2017-07-23T01:52:43.268Z,26.27
2017-07-23T01:55:15.817Z,26.87
2017-07-23T01:57:48.536Z,28.60
2017-07-23T02:00:20.772Z,29.90
2017-07-23T02:02:53.096Z,35.60
2017-07-23T02:05:25.343Z,33.50
2017-07-23T02:07:57.715Z,33.30
2017-07-23T02:10:29.913Z,35.27
2017-07-23T02:13:02.285Z,34.63
2017-07-23T02:15:34.484Z,39.40
2017-07-23T02:18:06.748Z,36.33
2017-07-23T02:20:38.976Z,42.27
2017-07-23T02:23:11.320Z,46.00
2017-07-23T02:25:43.543Z,43.90
2017-07-23T02:28:15.851Z,51.23
2017-07-23T02:30:48.344Z,52.90
2017-07-23T02:33:20.643Z,48.90
2017-07-23T02:35:52.918Z,51.60
2017-07-23T02:38:25.288Z,53.47
2017-07-23T02:40:57.486Z,54.83
2017-07-23T02:43:29.864Z,50.70
2017-07-23T02:46:02.107Z,46.07
2017-07-23T02:48:34.332Z,46.07
2017-07-23T02:51:06.772Z,45.37
2017-07-23T02:53:39.292Z,44.30
2017-07-23T02:56:11.472Z,44.90
2017-07-23T02:58:43.889Z,44.83
2017-07-23T03:01:16.098Z,46.30
2017-07-23T03:03:48.469Z,44.97
2017-07-23T03:06:20.732Z,49.57
2017-07-23T03:08:53.164Z,57.33
2017-07-23T03:11:25.607Z,56.93
2017-07-23T03:13:58.099Z,53.37
2017-07-23T03:16:30.544Z,54.80
2017-07-23T03:19:02.944Z,53.40
2017-07-23T03:21:35.184Z,51.80
2017-07-23T03:24:07.565Z,50.13
2017-07-23T03:26:39.808Z,51.80
2017-07-23T03:29:12.201Z,54.40
2017-07-23T03:31:44.423Z,55.17
2017-07-23T03:34:16.655Z,52.60
2017-07-23T03:36:49.067Z,54.43
2017-07-23T03:39:21.500Z,59.83
2017-07-23T03:41:53.843Z,57.00
2017-07-23T03:44:26.188Z,55.10
2017-07-23T03:46:58.489Z,58.40
2017-07-23T03:49:30.847Z,58.43
2017-07-23T03:52:03.028Z,57.00
2017-07-23T03:54:35.313Z,53.20
2017-07-23T03:57:07.587Z,56.07
2017-07-23T03:59:40.024Z,53.67
2017-07-23T04:02:12.332Z,57.80
2017-07-23T04:04:44.620Z,46.00
2017-07-23T04:07:17.024Z,49.03
2017-07-23T04:09:49.388Z,48.83
2017-07-23T04:12:21.740Z,45.20
2017-07-23T04:14:54.104Z,43.33
2017-07-23T04:17:26.459Z,42.10
2017-07-23T04:19:58.896Z,42.07
2017-07-23T04:22:31.226Z,41.40
2017-07-23T04:25:03.634Z,33.97
2017-07-23T04:27:35.928Z,39.47
2017-07-23T04:30:08.364Z,34.33
2017-07-23T04:32:40.668Z,33.23
2017-07-23T04:35:13.026Z,33.53
2017-07-23T04:37:45.343Z,35.67
2017-07-23T04:40:17.568Z,28.97
2017-07-23T04:42:50.273Z,24.20
2017-07-23T04:45:22.432Z,25.20
2017-07-23T04:47:54.663Z,20.67
2017-07-23T04:50:27.107Z,20.33
2017-07-23T04:52:59.423Z,14.47
2017-07-23T04:55:31.704Z,13.07
2017-07-23T04:58:04.068Z,12.30
2017-07-23T05:00:36.307Z,9.43
2017-07-23T05:03:08.480Z,12.17
2017-07-23T05:05:40.723Z,10.70
2017-07-23T05:08:12.921Z,7.87
2017-07-23T05:10:45.197Z,6.30
2017-07-23T05:13:17.539Z,7.17
2017-07-23T05:15:49.985Z,7.97
2017-07-23T05:18:22.245Z,7.10
2017-07-23T05:20:54.580Z,7.00
2017-07-23T05:23:26.733Z,7.63
2017-07-23T05:25:58.953Z,7.00
2017-07-23T05:28:31.292Z,6.80
2017-07-23T05:31:03.509Z,6.80
2017-07-23T05:33:35.719Z,7.57
2017-07-23T05:36:08.099Z,6.67
2017-07-23T05:38:40.259Z,7.53
2017-07-23T05:41:12.623Z,6.70
2017-07-23T05:43:44.871Z,6.60
2017-07-23T05:46:17.211Z,7.73
2017-07-23T05:48:49.474Z,6.30
2017-07-23T05:51:21.772Z,5.90
2017-07-23T05:53:53.995Z,5.73
2017-07-23T05:56:26.400Z,5.17
2017-07-23T05:58:58.624Z,4.77
2017-07-23T06:01:30.980Z,5.87
2017-07-23T06:04:03.165Z,4.20
2017-07-23T06:06:35.460Z,4.73
2017-07-23T06:09:07.736Z,4.53
2017-07-23T06:11:40.084Z,5.07
2017-07-23T06:14:12.366Z,4.60
2017-07-23T06:16:44.741Z,4.20
2017-07-23T06:19:16.977Z,5.30
2017-07-23T06:21:49.284Z,5.00
2017-07-23T06:24:21.667Z,4.20
2017-07-23T06:26:53.935Z,4.30
2017-07-23T06:29:26.299Z,3.80
2017-07-23T06:31:58.624Z,4.60
2017-07-23T06:34:30.953Z,4.87
2017-07-23T06:37:03.412Z,4.87
2017-07-23T06:39:35.814Z,4.93
2017-07-23T06:42:08.199Z,5.00
2017-07-23T06:44:40.616Z,4.70
2017-07-23T06:47:13.112Z,4.10
2017-07-23T06:49:45.536Z,5.77
2017-07-23T06:52:17.959Z,6.37
2017-07-23T06:54:50.500Z,5.80
2017-07-23T06:57:22.867Z,9.07
2017-07-23T06:59:55.165Z,7.30
2017-07-23T07:02:27.667Z,6.10
2017-07-23T07:05:00.011Z,6.73
2017-07-23T07:07:32.392Z,6.70
2017-07-23T07:10:04.692Z,6.60
2017-07-23T07:12:37.087Z,5.87
2017-07-23T07:15:09.361Z,5.97
2017-07-23T07:17:41.728Z,4.77
2017-07-23T07:20:13.964Z,4.70
2017-07-23T07:22:46.318Z,4.30
2017-07-23T07:25:18.639Z,3.70
2017-07-23T07:27:50.947Z,3.40
2017-07-23T07:30:23.169Z,3.10
2017-07-23T07:32:55.531Z,4.03
2017-07-23T07:35:27.775Z,3.20
2017-07-23T07:38:00.107Z,2.90
2017-07-23T07:40:32.419Z,3.17
2017-07-23T07:43:04.809Z,3.10
2017-07-23T07:45:37.072Z,2.77
2017-07-23T07:48:09.320Z,2.80
2017-07-23T07:50:41.441Z,3.17
2017-07-23T07:53:13.715Z,3.00
2017-07-23T07:55:46.120Z,2.43
2017-07-23T07:58:18.312Z,2.60
2017-07-23T08:00:50.625Z,2.67
2017-07-23T08:03:23.136Z,2.40
2017-07-23T08:05:55.279Z,2.33
2017-07-23T08:08:27.584Z,2.33
2017-07-23T08:10:59.914Z,2.10
2017-07-23T08:13:32.287Z,2.07
2017-07-23T08:16:04.521Z,2.23
2017-07-23T08:18:36.830Z,3.17
2017-07-23T08:21:09.079Z,2.40
2017-07-23T08:23:41.420Z,2.73
2017-07-23T08:26:13.743Z,2.47
2017-07-23T08:28:46.029Z,2.90
2017-07-23T08:31:18.258Z,2.50
2017-07-23T08:33:50.656Z,3.07
2017-07-23T08:36:22.912Z,3.00
2017-07-23T08:38:55.470Z,2.30
2017-07-23T08:41:27.484Z,2.60
2017-07-23T08:43:59.767Z,2.00
2017-07-23T08:46:32.076Z,2.63
2017-07-23T08:49:04.721Z,2.33
2017-07-23T08:51:36.914Z,2.20
2017-07-23T08:54:09.447Z,1.70
2017-07-23T08:56:41.867Z,2.07
2017-07-23T08:59:14.187Z,3.97
2017-07-23T09:01:46.427Z,2.10
2017-07-23T09:04:18.824Z,2.13
2017-07-23T09:06:51.172Z,3.00
2017-07-23T09:09:23.569Z,3.27
2017-07-23T09:11:55.904Z,1.77
2017-07-23T09:14:28.543Z,2.00
2017-07-23T09:17:00.864Z,4.57
2017-07-23T09:19:33.424Z,4.00
2017-07-23T09:22:05.831Z,2.43
2017-07-23T09:24:38.214Z,4.00
2017-07-23T09:27:10.441Z,2.53
2017-07-23T09:29:42.859Z,3.60
2017-07-23T09:32:15.091Z,2.07
2017-07-23T09:34:47.422Z,2.63
2017-07-23T09:37:19.961Z,2.30
2017-07-23T09:39:52.380Z,2.93
2017-07-23T09:42:24.692Z,3.30
2017-07-23T09:44:57.211Z,7.90
2017-07-23T09:47:29.651Z,3.23
2017-07-23T09:50:02.044Z,4.23
2017-07-23T09:52:34.425Z,3.53
2017-07-23T09:55:06.844Z,3.17
2017-07-23T09:57:39.232Z,3.27
2017-07-23T10:00:11.671Z,3.80
2017-07-23T10:02:44.116Z,3.20
2017-07-23T10:05:16.503Z,3.47
2017-07-23T10:07:48.951Z,2.83
2017-07-23T10:10:21.328Z,3.60
2017-07-23T10:12:53.680Z,3.70
2017-07-23T10:15:26.068Z,2.23
2017-07-23T10:17:58.391Z,3.93
2017-07-23T10:20:30.771Z,4.13
2017-07-23T10:23:03.227Z,2.77
2017-07-23T10:25:35.624Z,2.93
2017-07-23T10:28:08.017Z,3.33
2017-07-23T10:30:40.377Z,1.10
2017-07-23T10:33:12.719Z,1.77
2017-07-23T10:35:45.091Z,1.90
2017-07-23T10:38:17.374Z,1.10
2017-07-23T10:40:49.984Z,1.27
2017-07-23T10:43:22.169Z,1.43
2017-07-23T10:45:54.475Z,2.40
2017-07-23T10:48:26.873Z,2.10
2017-07-23T10:50:59.247Z,1.57
2017-07-23T10:53:31.637Z,4.30
2017-07-23T10:56:04.007Z,2.33
2017-07-23T10:58:36.428Z,2.63
2017-07-23T11:01:08.822Z,1.13
2017-07-23T11:03:41.101Z,1.27
2017-07-23T11:06:13.485Z,1.73
2017-07-23T11:08:45.847Z,1.90
2017-07-23T11:11:18.319Z,2.83
2017-07-23T11:13:50.696Z,1.20
2017-07-23T11:16:23.065Z,2.37
2017-07-23T11:18:55.435Z,1.60
2017-07-23T11:21:27.950Z,3.13
2017-07-23T11:24:00.180Z,4.27
2017-07-23T11:26:32.592Z,1.80
2017-07-23T11:29:04.933Z,5.50
2017-07-23T11:31:37.305Z,3.90
2017-07-23T11:34:09.565Z,2.97
2017-07-23T11:36:41.808Z,2.30
2017-07-23T11:39:14.318Z,2.73
2017-07-23T11:41:46.716Z,4.50
2017-07-23T11:44:19.029Z,3.43
2017-07-23T11:46:51.400Z,2.70
2017-07-23T11:49:23.675Z,2.67
2017-07-23T11:51:56.126Z,2.73
2017-07-23T11:54:28.375Z,2.20
2017-07-23T11:57:00.682Z,3.33
2017-07-23T11:59:33.016Z,2.63
2017-07-23T12:02:05.383Z,4.00
2017-07-23T12:04:37.772Z,2.10
2017-07-23T12:07:10.293Z,5.43
2017-07-23T12:09:42.556Z,1.73
2017-07-23T12:12:14.798Z,1.80
2017-07-23T12:14:47.121Z,1.83
2017-07-23T12:17:19.399Z,2.23
2017-07-23T12:19:51.692Z,1.97
2017-07-23T12:22:24.068Z,1.90
2017-07-23T12:24:56.276Z,2.37
2017-07-23T12:27:28.603Z,1.87
2017-07-23T12:30:00.900Z,3.13
2017-07-23T12:32:33.265Z,2.47
2017-07-23T12:35:05.568Z,3.47
2017-07-23T12:37:37.928Z,2.20
2017-07-23T12:40:10.067Z,2.07
2017-07-23T12:42:42.455Z,1.87
2017-07-23T12:45:14.867Z,3.23
2017-07-23T12:47:47.171Z,2.73
2017-07-23T12:50:19.542Z,4.53
2017-07-23T12:52:51.812Z,2.33
2017-07-23T12:55:24.148Z,2.37
2017-07-23T12:57:56.463Z,3.57
2017-07-23T13:00:28.904Z,2.10
2017-07-23T13:03:01.404Z,2.20
2017-07-23T13:05:33.824Z,3.57
2017-07-23T13:08:06.280Z,2.30
2017-07-23T13:10:38.643Z,2.20
2017-07-23T13:13:10.984Z,2.67
2017-07-23T13:15:43.376Z,2.37
2017-07-23T13:18:15.844Z,3.00
2017-07-23T13:20:48.055Z,2.23
2017-07-23T13:23:20.504Z,3.03
2017-07-23T13:25:52.771Z,3.60
2017-07-23T13:28:24.997Z,2.80
2017-07-23T13:30:57.239Z,2.60
2017-07-23T13:33:29.599Z,2.27
2017-07-23T13:36:01.803Z,2.90
2017-07-23T13:38:34.108Z,3.27
2017-07-23T13:41:06.363Z,2.40
2017-07-23T13:43:38.740Z,3.40
2017-07-23T13:46:11.196Z,3.70
2017-07-23T13:48:43.504Z,3.73
2017-07-23T13:51:15.943Z,2.40
2017-07-23T13:53:48.398Z,2.37
2017-07-23T13:56:20.819Z,2.80
2017-07-23T13:58:53.053Z,1.77
2017-07-23T14:01:25.482Z,2.97
2017-07-23T14:03:57.712Z,1.17
2017-07-23T14:06:29.928Z,1.33
2017-07-23T14:09:02.349Z,1.97
2017-07-23T14:11:34.813Z,1.47
2017-07-23T14:14:06.992Z,1.37
2017-07-23T14:16:39.332Z,1.23
2017-07-23T14:19:11.576Z,2.13
2017-07-23T14:21:43.843Z,2.10
2017-07-23T14:24:16.156Z,1.40
2017-07-23T14:26:48.299Z,2.33
2017-07-23T14:29:20.600Z,1.47
2017-07-23T14:31:52.872Z,1.63
2017-07-23T14:34:25.283Z,5.40
2017-07-23T14:36:57.468Z,1.73
2017-07-23T14:39:30.079Z,2.13
2017-07-23T14:42:01.932Z,1.73
2017-07-23T14:44:34.300Z,3.67
2017-07-23T14:47:06.549Z,1.50
2017-07-23T14:49:39.071Z,1.77
2017-07-23T14:52:11.351Z,4.30
2017-07-23T14:54:43.643Z,1.70
2017-07-23T14:57:16.020Z,2.43
2017-07-23T14:59:48.247Z,1.80
2017-07-23T15:02:20.541Z,3.90
2017-07-23T15:04:52.818Z,2.40
2017-07-23T15:07:25.152Z,4.00
2017-07-23T15:09:57.554Z,2.30
2017-07-23T15:12:29.859Z,3.00
2017-07-23T15:15:02.232Z,2.20
2017-07-23T15:17:34.416Z,1.97
2017-07-23T15:20:06.623Z,3.57
2017-07-23T15:22:38.879Z,2.07
2017-07-23T15:25:11.248Z,3.03
2017-07-23T15:27:43.460Z,1.70
2017-07-23T15:30:15.795Z,3.80
2017-07-23T15:32:48.060Z,3.97
2017-07-23T15:35:20.414Z,1.73
2017-07-23T15:37:52.584Z,2.77
2017-07-23T15:40:24.910Z,1.73
2017-07-23T15:42:57.197Z,3.17
2017-07-23T15:45:29.494Z,3.93
2017-07-23T15:48:01.925Z,2.23
2017-07-23T15:50:34.223Z,1.87
2017-07-23T15:53:06.548Z,3.13
2017-07-23T15:55:38.884Z,3.60
2017-07-23T15:58:11.247Z,2.67
2017-07-23T16:00:43.569Z,3.07
2017-07-23T16:03:15.900Z,4.80
2017-07-23T16:05:48.268Z,3.40
2017-07-23T16:08:20.479Z,2.53
2017-07-23T16:10:52.792Z,2.53
2017-07-23T16:13:25.046Z,2.43
2017-07-23T16:15:57.296Z,2.00
2017-07-23T16:18:29.486Z,3.30
2017-07-23T16:21:01.799Z,5.30
2017-07-23T16:23:34.184Z,3.80
2017-07-23T16:26:06.416Z,3.53
2017-07-23T16:28:38.734Z,2.10
2017-07-23T16:31:11.073Z,4.63
2017-07-23T16:33:43.448Z,2.80
2017-07-23T16:36:15.791Z,2.53
2017-07-23T16:38:48.203Z,2.47
2017-07-23T16:41:20.532Z,2.07
2017-07-23T16:43:52.756Z,2.77
2017-07-23T16:46:25.068Z,2.83
2017-07-23T16:48:57.451Z,2.50
2017-07-23T16:51:29.580Z,4.17
2017-07-23T16:54:01.916Z,2.70
2017-07-23T16:56:34.151Z,1.93
2017-07-23T16:59:06.618Z,3.33
2017-07-23T17:01:39.000Z,2.60
2017-07-23T17:04:11.183Z,2.57
2017-07-23T17:06:43.619Z,3.63
2017-07-23T17:09:15.729Z,3.10
2017-07-23T17:11:48.072Z,2.27
2017-07-23T17:14:20.384Z,2.87
2017-07-23T17:16:52.673Z,2.53
2017-07-23T17:19:24.903Z,2.90
2017-07-23T17:21:57.271Z,2.47
2017-07-23T17:24:29.660Z,2.40
2017-07-23T17:27:01.925Z,3.20
2017-07-23T17:29:34.151Z,2.50
2017-07-23T17:32:06.607Z,2.50
2017-07-23T17:34:38.987Z,4.70
2017-07-23T17:37:11.264Z,2.83
2017-07-23T17:39:43.504Z,3.33
2017-07-23T17:42:15.732Z,2.20
2017-07-23T17:44:48.425Z,2.67
2017-07-23T17:47:20.509Z,4.03
2017-07-23T17:49:52.939Z,2.97
2017-07-23T17:52:25.424Z,2.53
2017-07-23T17:54:57.732Z,3.27
2017-07-23T17:57:29.905Z,3.17
2017-07-23T18:00:02.244Z,7.50
2017-07-23T18:02:34.709Z,3.13
2017-07-23T18:05:07.025Z,3.47
2017-07-23T18:07:39.491Z,2.07
2017-07-23T18:10:11.644Z,4.07
2017-07-23T18:12:43.991Z,3.10
2017-07-23T18:15:16.324Z,4.50
2017-07-23T18:17:48.948Z,3.17
2017-07-23T18:20:21.160Z,3.40
2017-07-23T18:22:53.268Z,2.10
2017-07-23T18:25:25.663Z,3.33
2017-07-23T18:27:58.043Z,6.63
2017-07-23T18:30:30.351Z,5.60
2017-07-23T18:33:02.735Z,2.93
2017-07-23T18:35:34.988Z,2.70
2017-07-23T18:38:07.340Z,3.87
2017-07-23T18:40:39.612Z,2.60
2017-07-23T18:43:11.995Z,3.10
2017-07-23T18:45:44.389Z,2.87
2017-07-23T18:48:16.676Z,3.00
2017-07-23T18:50:49.112Z,2.13
2017-07-23T18:53:21.460Z,2.00
2017-07-23T18:55:53.816Z,1.93
2017-07-23T18:58:26.239Z,2.30
2017-07-23T19:00:58.575Z,2.50
2017-07-23T19:03:30.863Z,5.10
2017-07-23T19:06:03.101Z,1.83
2017-07-23T19:08:35.300Z,2.63
2017-07-23T19:11:07.729Z,2.00
2017-07-23T19:13:40.083Z,3.37
2017-07-23T19:16:12.375Z,1.77
2017-07-23T19:18:44.793Z,3.03
2017-07-23T19:21:17.188Z,2.00
2017-07-23T19:23:49.460Z,2.00
2017-07-23T19:26:21.743Z,2.83
2017-07-23T19:28:54.004Z,2.47
2017-07-23T19:31:26.364Z,4.23
2017-07-23T19:33:58.601Z,2.23
2017-07-23T19:36:30.980Z,5.07
2017-07-23T19:39:03.296Z,4.00
2017-07-23T19:41:35.697Z,1.80
2017-07-23T19:44:07.964Z,3.03
2017-07-23T19:46:40.251Z,2.43
2017-07-23T19:49:12.604Z,4.20
2017-07-23T19:51:44.819Z,3.40
2017-07-23T19:54:17.048Z,2.43
2017-07-23T19:56:49.316Z,2.83
2017-07-23T19:59:21.643Z,3.43
2017-07-23T20:01:53.884Z,2.10
2017-07-23T20:04:26.156Z,1.20
2017-07-23T20:06:58.412Z,1.80
2017-07-23T20:09:30.656Z,2.63
2017-07-23T20:12:03.013Z,1.60
2017-07-23T20:14:35.384Z,1.83
2017-07-23T20:17:07.716Z,3.77
2017-07-23T20:19:40.128Z,1.80
2017-07-23T20:22:12.349Z,4.07
2017-07-23T20:24:44.639Z,2.03
2017-07-23T20:27:16.835Z,2.50
2017-07-23T20:29:49.197Z,2.27
2017-07-23T20:32:21.488Z,2.53
2017-07-23T20:34:53.940Z,2.10
2017-07-23T20:37:26.223Z,2.30
2017-07-23T20:39:58.637Z,1.60
2017-07-23T20:42:30.926Z,2.10
2017-07-23T20:45:03.220Z,1.60
2017-07-23T20:47:35.574Z,1.60
2017-07-23T20:50:07.916Z,1.53
2017-07-23T20:52:40.196Z,1.80
2017-07-23T20:55:12.584Z,2.83
2017-07-23T20:57:44.804Z,2.63
2017-07-23T21:00:17.160Z,1.80
2017-07-23T21:02:49.409Z,2.00
2017-07-23T21:05:21.836Z,2.13
2017-07-23T21:07:53.987Z,3.47
2017-07-23T21:10:26.416Z,2.27
2017-07-23T21:12:58.687Z,2.40
2017-07-23T21:15:30.964Z,1.93
2017-07-23T21:18:03.336Z,2.63
2017-07-23T21:20:35.832Z,3.20
2017-07-23T21:23:08.183Z,2.07
2017-07-23T21:25:40.422Z,2.50
2017-07-23T21:28:12.711Z,2.07
2017-07-23T21:30:45.044Z,2.40
2017-07-23T21:33:17.329Z,2.10
2017-07-23T21:35:49.594Z,2.53
2017-07-23T21:38:21.851Z,3.07
2017-07-23T21:40:54.164Z,2.10
2017-07-23T21:43:26.390Z,2.50
2017-07-23T21:45:58.755Z,2.53
2017-07-23T21:48:31.111Z,3.27
2017-07-23T21:51:03.343Z,2.40
2017-07-23T21:53:35.647Z,2.80
2017-07-23T21:56:07.896Z,2.80
2017-07-23T21:58:40.192Z,3.47
2017-07-23T22:01:12.556Z,2.90
2017-07-23T22:03:44.767Z,3.10
2017-07-23T22:06:17.153Z,2.50
2017-07-23T22:08:49.265Z,2.90
2017-07-23T22:11:21.640Z,2.63
2017-07-23T22:13:53.767Z,3.30
2017-07-23T22:16:26.105Z,4.00
2017-07-23T22:18:58.575Z,4.43
2017-07-23T22:21:30.949Z,3.00
2017-07-23T22:24:03.400Z,3.87
2017-07-23T22:26:35.754Z,3.60
2017-07-23T22:29:08.183Z,3.97
2017-07-23T22:31:40.740Z,3.13
2017-07-23T22:34:13.048Z,3.20
2017-07-23T22:36:45.403Z,3.17
2017-07-23T22:39:17.651Z,3.63
2017-07-23T22:41:50.020Z,3.60
2017-07-23T22:44:22.284Z,5.50
2017-07-23T22:46:54.674Z,5.87
2017-07-23T22:49:26.867Z,3.50
2017-07-23T22:51:59.331Z,3.70
2017-07-23T22:54:31.735Z,4.40
2017-07-23T22:57:04.007Z,4.00
2017-07-23T22:59:36.365Z,3.90
2017-07-23T23:02:08.707Z,4.07
2017-07-23T23:04:41.047Z,4.23
2017-07-23T23:07:13.278Z,3.90
2017-07-23T23:09:45.631Z,4.00
2017-07-23T23:12:17.959Z,4.70
2017-07-23T23:14:50.343Z,4.37
2017-07-23T23:17:22.652Z,4.13
2017-07-23T23:19:55.329Z,6.23
2017-07-23T23:22:27.572Z,5.87
2017-07-23T23:24:59.811Z,3.83
2017-07-23T23:27:32.234Z,3.90
2017-07-23T23:30:04.620Z,5.00
2017-07-23T23:32:37.103Z,4.90
2017-07-23T23:35:09.464Z,5.50
2017-07-23T23:37:41.761Z,4.13
2017-07-23T23:40:14.156Z,4.40
2017-07-23T23:42:46.581Z,5.03
2017-07-23T23:45:18.953Z,5.23
2017-07-23T23:47:51.348Z,4.80
2017-07-23T23:50:23.793Z,4.97
2017-07-23T23:52:56.179Z,5.13
2017-07-23T23:55:28.536Z,4.03
2017-07-23T23:58:00.942Z,5.60
